createdAt,value
2019-05-19T00:01:20.450Z,14.00
2019-05-19T00:03:21.710Z,14.00
2019-05-19T00:05:22.986Z,14.00
2019-05-19T00:07:24.277Z,13.90
2019-05-19T00:09:25.776Z,13.90
2019-05-19T00:11:27.202Z,13.90
2019-05-19T00:13:28.639Z,13.90
2019-05-19T00:15:29.902Z,13.90
2019-05-19T00:17:31.431Z,13.90
2019-05-19T00:19:32.865Z,13.80
2019-05-19T00:21:34.139Z,13.70
2019-05-19T00:23:35.398Z,13.70
2019-05-19T00:25:36.922Z,13.70
2019-05-19T00:27:38.438Z,13.60
2019-05-19T00:29:39.697Z,13.50
2019-05-19T00:31:40.969Z,13.50
2019-05-19T00:33:42.361Z,13.50
2019-05-19T00:35:43.702Z,13.50
2019-05-19T00:37:44.959Z,13.40
2019-05-19T00:39:46.503Z,13.30
2019-05-19T00:41:47.763Z,13.30
2019-05-19T00:43:50.033Z,13.20
2019-05-19T00:45:51.301Z,13.20
2019-05-19T00:47:52.681Z,13.20
2019-05-19T00:49:54.204Z,13.20
2019-05-19T00:51:55.458Z,13.20
2019-05-19T00:53:56.734Z,13.10
2019-05-19T00:55:58.419Z,13.10
2019-05-19T00:58:00.762Z,13.10
2019-05-19T01:00:05.079Z,13.10
2019-05-19T01:02:06.655Z,13.10
2019-05-19T01:04:07.987Z,13.10
2019-05-19T01:06:09.561Z,13.00
2019-05-19T01:08:11.055Z,13.00
2019-05-19T01:10:13.921Z,13.00
2019-05-19T01:12:15.441Z,13.00
2019-05-19T01:14:17.033Z,12.90
2019-05-19T01:16:18.550Z,12.90
2019-05-19T01:18:20.090Z,12.90
2019-05-19T01:20:21.507Z,12.90
2019-05-19T01:22:22.761Z,12.80
2019-05-19T01:24:24.030Z,12.80
2019-05-19T01:26:25.305Z,12.70
2019-05-19T01:28:26.574Z,12.70
2019-05-19T01:30:27.849Z,12.70
2019-05-19T01:32:29.402Z,12.70
2019-05-19T01:34:30.905Z,12.60
2019-05-19T01:36:32.175Z,12.60
2019-05-19T01:38:33.581Z,12.60
2019-05-19T01:40:34.924Z,12.60
2019-05-19T01:42:36.182Z,12.50
2019-05-19T01:44:37.495Z,12.50
2019-05-19T01:46:39.151Z,12.40
2019-05-19T01:48:40.358Z,12.40
2019-05-19T01:50:41.626Z,12.40
2019-05-19T01:52:42.882Z,12.40
2019-05-19T01:54:44.270Z,12.40
2019-05-19T01:56:45.535Z,12.40
2019-05-19T01:58:46.814Z,12.30
2019-05-19T02:00:49.226Z,12.30
2019-05-19T02:02:50.553Z,12.30
2019-05-19T02:04:51.822Z,12.30
2019-05-19T02:06:54.346Z,12.30
2019-05-19T02:08:55.606Z,12.20
2019-05-19T02:10:57.124Z,12.20
2019-05-19T02:12:58.385Z,12.20
2019-05-19T02:15:00.298Z,12.20
2019-05-19T02:17:01.833Z,12.20
2019-05-19T02:19:03.258Z,12.20
2019-05-19T02:21:05.086Z,12.10
2019-05-19T02:23:06.675Z,12.10
2019-05-19T02:25:08.097Z,12.10
2019-05-19T02:27:10.475Z,12.00
2019-05-19T02:29:11.736Z,12.00
2019-05-19T02:31:13.152Z,11.90
2019-05-19T02:33:14.414Z,11.90
2019-05-19T02:35:15.885Z,11.90
2019-05-19T02:37:17.150Z,11.90
2019-05-19T02:39:18.413Z,11.90
2019-05-19T02:41:21.088Z,11.90
2019-05-19T02:43:23.862Z,11.80
2019-05-19T02:45:28.790Z,11.80
2019-05-19T02:47:31.426Z,11.80
2019-05-19T02:49:33.337Z,11.80
2019-05-19T02:51:36.459Z,11.70
2019-05-19T02:53:38.018Z,11.70
2019-05-19T02:55:39.579Z,11.70
2019-05-19T02:57:40.841Z,11.70
2019-05-19T02:59:42.706Z,11.60
2019-05-19T03:02:00.979Z,11.60
2019-05-19T03:04:02.234Z,11.70
2019-05-19T03:06:04.503Z,11.60
2019-05-19T03:08:05.872Z,11.60
2019-05-19T03:10:09.287Z,11.60
2019-05-19T03:12:10.551Z,11.60
2019-05-19T03:14:11.816Z,11.60
2019-05-19T03:16:13.086Z,11.60
2019-05-19T03:18:14.361Z,11.50
2019-05-19T03:20:16.730Z,11.50
2019-05-19T03:22:18.093Z,11.50
2019-05-19T03:24:19.357Z,11.50
2019-05-19T03:26:20.634Z,11.50
2019-05-19T03:28:22.001Z,11.40
2019-05-19T03:30:41.629Z,11.40
2019-05-19T03:32:44.991Z,11.40
2019-05-19T03:34:46.598Z,11.50
2019-05-19T03:36:47.869Z,11.50
2019-05-19T03:38:49.230Z,11.50
2019-05-19T03:40:51.784Z,11.50
2019-05-19T03:42:53.053Z,11.40
2019-05-19T03:44:54.326Z,11.40
2019-05-19T03:46:55.642Z,11.40
2019-05-19T03:48:56.903Z,11.40
2019-05-19T03:50:58.243Z,11.40
2019-05-19T03:52:59.511Z,11.40
2019-05-19T03:55:01.029Z,11.30
2019-05-19T03:57:02.302Z,11.30
2019-05-19T03:59:03.566Z,11.40
2019-05-19T04:01:04.826Z,11.40
2019-05-19T04:03:06.118Z,11.30
2019-05-19T04:05:07.487Z,11.40
2019-05-19T04:07:09.113Z,11.40
2019-05-19T04:09:10.387Z,11.40
2019-05-19T04:11:11.705Z,11.50
2019-05-19T04:13:12.973Z,11.50
2019-05-19T04:15:14.440Z,11.50
2019-05-19T04:17:15.710Z,11.50
2019-05-19T04:19:17.050Z,11.50
2019-05-19T04:21:18.914Z,11.50
2019-05-19T04:23:20.435Z,11.60
2019-05-19T04:25:21.698Z,11.50
2019-05-19T04:27:23.267Z,11.70
2019-05-19T04:29:24.571Z,11.70
2019-05-19T04:31:25.935Z,11.60
2019-05-19T04:33:27.208Z,11.60
2019-05-19T04:35:28.514Z,11.70
2019-05-19T04:37:29.877Z,11.70
2019-05-19T04:39:31.242Z,11.70
2019-05-19T04:41:32.698Z,11.70
2019-05-19T04:43:34.013Z,11.80
2019-05-19T04:45:35.285Z,11.90
2019-05-19T04:47:36.722Z,11.80
2019-05-19T04:49:39.868Z,11.80
2019-05-19T04:51:41.142Z,11.80
2019-05-19T04:53:45.823Z,11.80
2019-05-19T04:55:49.965Z,11.90
2019-05-19T04:57:51.505Z,12.00
2019-05-19T04:59:52.767Z,12.00
2019-05-19T05:01:54.273Z,12.20
2019-05-19T05:03:55.690Z,12.20
2019-05-19T05:05:56.957Z,12.30
2019-05-19T05:07:58.283Z,12.30
2019-05-19T05:09:59.687Z,12.40
2019-05-19T05:12:00.981Z,12.30
2019-05-19T05:14:02.341Z,12.30
2019-05-19T05:16:03.885Z,12.40
2019-05-19T05:18:05.367Z,12.40
2019-05-19T05:20:07.087Z,12.40
2019-05-19T05:22:21.309Z,12.50
2019-05-19T05:24:11.768Z,12.50
2019-05-19T05:26:13.102Z,12.50
2019-05-19T05:28:15.375Z,12.60
2019-05-19T05:30:16.935Z,12.60
2019-05-19T05:32:18.211Z,12.70
2019-05-19T05:34:19.493Z,12.70
2019-05-19T05:36:21.071Z,12.70
2019-05-19T05:38:22.389Z,12.80
2019-05-19T05:40:23.650Z,12.90
2019-05-19T05:42:24.917Z,12.70
2019-05-19T05:44:26.193Z,12.80
2019-05-19T05:46:27.706Z,12.90
2019-05-19T05:48:29.013Z,13.00
2019-05-19T05:50:30.342Z,13.10
2019-05-19T05:52:38.596Z,13.00
2019-05-19T05:54:34.806Z,13.10
2019-05-19T05:56:36.077Z,13.20
2019-05-19T05:58:37.355Z,13.20
2019-05-19T06:00:38.617Z,13.30
2019-05-19T06:02:40.311Z,13.40
2019-05-19T06:04:41.585Z,13.40
2019-05-19T06:06:45.813Z,13.40
2019-05-19T06:08:46.314Z,13.50
2019-05-19T06:10:47.967Z,13.50
2019-05-19T06:12:49.316Z,13.60
2019-05-19T06:14:50.937Z,13.70
2019-05-19T06:16:52.078Z,13.80
2019-05-19T06:18:53.377Z,13.90
2019-05-19T06:20:54.705Z,14.10
2019-05-19T06:22:57.245Z,14.10
2019-05-19T06:24:59.340Z,14.20
2019-05-19T06:27:00.877Z,14.20
2019-05-19T06:29:02.612Z,14.20
2019-05-19T06:31:03.985Z,14.30
2019-05-19T06:33:05.534Z,14.30
2019-05-19T06:35:08.459Z,14.20
2019-05-19T06:37:09.733Z,14.20
2019-05-19T06:39:11.369Z,14.40
2019-05-19T06:41:12.775Z,14.50
2019-05-19T06:43:14.050Z,14.50
2019-05-19T06:45:15.441Z,14.60
2019-05-19T06:47:16.767Z,14.70
2019-05-19T06:49:18.044Z,14.70
2019-05-19T06:51:19.302Z,14.80
2019-05-19T06:53:20.574Z,14.90
2019-05-19T06:55:21.968Z,14.80
2019-05-19T06:57:24.545Z,14.80
2019-05-19T06:59:25.820Z,14.90
2019-05-19T07:01:27.082Z,14.90
2019-05-19T07:03:28.511Z,14.90
2019-05-19T07:05:30.143Z,15.10
2019-05-19T07:07:31.427Z,15.30
2019-05-19T07:09:33.008Z,15.40
2019-05-19T07:11:34.277Z,15.60
2019-05-19T07:13:35.710Z,15.80
2019-05-19T07:15:36.988Z,15.90
2019-05-19T07:17:38.258Z,16.00
2019-05-19T07:19:39.559Z,16.20
2019-05-19T07:21:40.866Z,16.30
2019-05-19T07:23:42.392Z,16.40
2019-05-19T07:25:43.674Z,16.50
2019-05-19T07:27:45.194Z,16.60
2019-05-19T07:29:46.471Z,16.70
2019-05-19T07:31:47.925Z,16.80
2019-05-19T07:33:49.710Z,16.90
2019-05-19T07:35:50.981Z,16.90
2019-05-19T07:37:52.518Z,17.00
2019-05-19T07:39:53.670Z,17.00
2019-05-19T07:41:54.938Z,17.10
2019-05-19T07:43:56.215Z,17.30
2019-05-19T07:45:57.488Z,17.40
2019-05-19T07:47:58.758Z,17.50
2019-05-19T07:50:00.029Z,17.60
2019-05-19T07:52:01.315Z,17.70
2019-05-19T07:54:02.585Z,17.80
2019-05-19T07:56:03.954Z,18.10
2019-05-19T07:58:05.653Z,18.30
2019-05-19T08:00:07.241Z,18.40
2019-05-19T08:02:08.687Z,18.60
2019-05-19T08:04:09.957Z,18.70
2019-05-19T08:06:11.272Z,18.80
2019-05-19T08:08:12.599Z,18.90
2019-05-19T08:10:13.974Z,19.10
2019-05-19T08:12:15.237Z,19.20
2019-05-19T08:14:16.522Z,19.30
2019-05-19T08:16:18.151Z,19.40
2019-05-19T08:18:19.328Z,19.50
2019-05-19T08:20:20.635Z,19.70
2019-05-19T08:22:21.941Z,19.70
2019-05-19T08:24:23.349Z,19.80
2019-05-19T08:26:24.610Z,19.80
2019-05-19T08:28:26.193Z,20.00
2019-05-19T08:30:31.026Z,20.20
2019-05-19T08:32:32.318Z,20.30
2019-05-19T08:34:33.633Z,20.30
2019-05-19T08:36:34.956Z,20.50
2019-05-19T08:38:39.049Z,20.70
2019-05-19T08:40:40.477Z,20.90
2019-05-19T08:42:41.827Z,21.00
2019-05-19T08:44:43.121Z,21.10
2019-05-19T08:46:44.388Z,21.20
2019-05-19T08:48:48.581Z,21.20
2019-05-19T08:50:49.863Z,21.30
2019-05-19T08:52:51.264Z,21.30
2019-05-19T08:54:52.579Z,21.30
2019-05-19T08:56:53.889Z,21.40
2019-05-19T08:58:55.169Z,21.50
2019-05-19T09:00:56.461Z,21.60
2019-05-19T09:02:57.720Z,21.70
2019-05-19T09:05:00.945Z,21.90
2019-05-19T09:07:02.216Z,22.00
2019-05-19T09:09:04.611Z,22.00
2019-05-19T09:11:06.204Z,22.30
2019-05-19T09:13:07.464Z,22.40
2019-05-19T09:15:09.280Z,22.50
2019-05-19T09:17:10.575Z,22.60
2019-05-19T09:19:11.913Z,22.70
2019-05-19T09:21:13.525Z,22.70
2019-05-19T09:23:15.955Z,22.90
2019-05-19T09:25:17.437Z,23.00
2019-05-19T09:27:18.805Z,23.10
2019-05-19T09:29:20.082Z,23.20
2019-05-19T09:31:21.696Z,23.20
2019-05-19T09:33:22.950Z,23.30
2019-05-19T09:35:24.235Z,23.40
2019-05-19T09:37:25.519Z,23.60
2019-05-19T09:39:26.862Z,23.70
2019-05-19T09:41:28.337Z,23.90
2019-05-19T09:43:29.544Z,23.90
2019-05-19T09:45:30.869Z,24.20
2019-05-19T09:47:32.356Z,24.10
2019-05-19T09:49:36.519Z,24.10
2019-05-19T09:51:37.801Z,24.30
2019-05-19T09:53:39.336Z,24.50
2019-05-19T09:55:41.054Z,24.60
2019-05-19T09:57:42.440Z,24.80
2019-05-19T09:59:43.813Z,25.10
2019-05-19T10:01:45.105Z,25.10
2019-05-19T10:03:46.706Z,25.10
2019-05-19T10:05:48.304Z,25.20
2019-05-19T10:07:49.622Z,25.30
2019-05-19T10:09:57.793Z,25.20
2019-05-19T10:12:06.397Z,25.30
2019-05-19T10:14:07.928Z,25.40
2019-05-19T10:16:09.206Z,25.30
2019-05-19T10:18:10.482Z,25.20
2019-05-19T10:20:13.983Z,25.00
2019-05-19T10:22:15.334Z,24.70
2019-05-19T10:24:17.147Z,24.70
2019-05-19T10:26:18.783Z,25.00
2019-05-19T10:28:21.463Z,25.20
2019-05-19T10:30:22.741Z,25.40
2019-05-19T10:32:24.276Z,25.70
2019-05-19T10:34:25.581Z,26.00
2019-05-19T10:36:26.918Z,26.10
2019-05-19T10:38:28.174Z,26.20
2019-05-19T10:40:29.490Z,26.40
2019-05-19T10:42:30.755Z,26.50
2019-05-19T10:44:32.254Z,26.60
2019-05-19T10:46:33.736Z,26.70
2019-05-19T10:48:35.104Z,26.60
2019-05-19T10:50:36.647Z,26.50
2019-05-19T10:52:38.141Z,26.40
2019-05-19T10:54:39.819Z,26.50
2019-05-19T10:56:41.119Z,26.60
2019-05-19T10:58:42.444Z,26.80
2019-05-19T11:00:43.679Z,27.10
2019-05-19T11:02:44.974Z,27.40
2019-05-19T11:04:46.160Z,27.60
2019-05-19T11:06:47.486Z,27.60
2019-05-19T11:08:48.866Z,27.70
2019-05-19T11:10:50.450Z,27.70
2019-05-19T11:12:51.828Z,27.80
2019-05-19T11:14:53.031Z,27.70
2019-05-19T11:16:54.318Z,27.50
2019-05-19T11:18:55.602Z,27.70
2019-05-19T11:20:56.776Z,27.90
2019-05-19T11:22:58.177Z,28.00
2019-05-19T11:24:59.650Z,27.80
2019-05-19T11:27:01.197Z,27.70
2019-05-19T11:29:02.710Z,27.60
2019-05-19T11:31:04.009Z,27.80
2019-05-19T11:33:05.296Z,28.00
2019-05-19T11:35:06.497Z,28.50
2019-05-19T11:37:07.805Z,28.50
2019-05-19T11:39:09.083Z,28.30
2019-05-19T11:41:10.529Z,28.20
2019-05-19T11:43:11.878Z,28.00
2019-05-19T11:45:13.342Z,27.80
2019-05-19T11:47:14.670Z,27.70
2019-05-19T11:49:17.175Z,27.80
2019-05-19T11:51:18.577Z,28.10
2019-05-19T11:53:19.938Z,28.40
2019-05-19T11:55:21.115Z,28.70
2019-05-19T11:57:22.550Z,29.00
2019-05-19T11:59:24.107Z,29.20
2019-05-19T12:01:25.433Z,29.30
2019-05-19T12:03:26.625Z,29.40
2019-05-19T12:05:27.888Z,29.70
2019-05-19T12:07:29.253Z,29.80
2019-05-19T12:09:30.681Z,29.80
2019-05-19T12:11:31.985Z,30.00
2019-05-19T12:13:35.033Z,30.10
2019-05-19T12:15:36.458Z,30.20
2019-05-19T12:17:37.994Z,30.10
2019-05-19T12:19:39.542Z,30.20
2019-05-19T12:21:40.834Z,30.40
2019-05-19T12:23:42.033Z,30.50
2019-05-19T12:25:43.696Z,30.60
2019-05-19T12:27:45.205Z,30.70
2019-05-19T12:29:46.563Z,30.80
2019-05-19T12:31:47.760Z,30.90
2019-05-19T12:33:51.935Z,31.20
2019-05-19T12:35:52.525Z,31.20
2019-05-19T12:37:53.702Z,31.40
2019-05-19T12:39:54.995Z,31.40
2019-05-19T12:41:56.619Z,31.60
2019-05-19T12:43:57.805Z,31.70
2019-05-19T12:45:59.135Z,31.90
2019-05-19T12:48:00.521Z,32.00
2019-05-19T12:50:03.550Z,32.30
2019-05-19T12:52:04.997Z,31.90
2019-05-19T12:54:06.169Z,31.50
2019-05-19T12:56:07.592Z,31.20
2019-05-19T12:58:08.941Z,30.80
2019-05-19T13:00:10.514Z,30.40
2019-05-19T13:02:12.104Z,29.80
2019-05-19T13:04:13.553Z,29.50
2019-05-19T13:06:14.976Z,29.00
2019-05-19T13:08:16.348Z,28.40
2019-05-19T13:10:17.637Z,28.20
2019-05-19T13:12:19.013Z,28.00
2019-05-19T13:14:20.505Z,28.00
2019-05-19T13:16:21.775Z,27.90
2019-05-19T13:18:23.066Z,28.00
2019-05-19T13:20:24.518Z,27.80
2019-05-19T13:22:25.866Z,27.80
2019-05-19T13:24:27.312Z,27.80
2019-05-19T13:26:28.457Z,27.80
2019-05-19T13:28:29.745Z,27.90
2019-05-19T13:30:31.104Z,28.50
2019-05-19T13:32:32.486Z,28.80
2019-05-19T13:34:33.835Z,28.60
2019-05-19T13:36:35.054Z,28.60
2019-05-19T13:38:36.329Z,28.60
2019-05-19T13:40:37.757Z,28.50
2019-05-19T13:42:38.901Z,28.50
2019-05-19T13:44:40.620Z,28.30
2019-05-19T13:46:41.969Z,28.00
2019-05-19T13:48:45.661Z,28.00
2019-05-19T13:50:46.910Z,28.00
2019-05-19T13:52:51.100Z,28.10
2019-05-19T13:54:52.472Z,28.30
2019-05-19T13:56:53.748Z,28.40
2019-05-19T13:58:55.550Z,28.50
2019-05-19T14:00:57.978Z,28.90
2019-05-19T14:02:59.385Z,29.50
2019-05-19T14:05:00.608Z,30.00
2019-05-19T14:07:04.454Z,30.50
2019-05-19T14:09:15.228Z,31.00
2019-05-19T14:11:16.713Z,31.50
2019-05-19T14:13:17.950Z,31.90
2019-05-19T14:15:19.661Z,32.30
2019-05-19T14:17:20.968Z,32.60
2019-05-19T14:19:25.242Z,32.80
2019-05-19T14:21:26.479Z,33.20
2019-05-19T14:23:27.718Z,33.30
2019-05-19T14:25:29.030Z,33.50
2019-05-19T14:27:31.069Z,33.60
2019-05-19T14:29:32.482Z,33.50
2019-05-19T14:31:33.687Z,33.50
2019-05-19T14:33:35.072Z,33.60
2019-05-19T14:35:36.340Z,33.70
2019-05-19T14:37:37.561Z,33.90
2019-05-19T14:39:38.854Z,33.80
2019-05-19T14:41:41.973Z,33.90
2019-05-19T14:43:43.759Z,34.00
2019-05-19T14:45:45.195Z,34.20
2019-05-19T14:47:46.529Z,34.40
2019-05-19T14:49:48.141Z,34.40
2019-05-19T14:51:49.495Z,34.60
2019-05-19T14:53:51.117Z,34.60
2019-05-19T14:55:52.539Z,34.60
2019-05-19T14:57:53.807Z,34.60
2019-05-19T14:59:56.394Z,34.80
2019-05-19T15:01:57.677Z,35.00
2019-05-19T15:03:58.959Z,35.10
2019-05-19T15:06:00.318Z,35.20
2019-05-19T15:08:01.578Z,35.20
2019-05-19T15:10:04.160Z,35.30
2019-05-19T15:12:05.779Z,35.40
2019-05-19T15:14:07.578Z,35.40
2019-05-19T15:16:08.847Z,35.50
2019-05-19T15:18:10.233Z,35.40
2019-05-19T15:20:13.006Z,35.10
2019-05-19T15:22:14.536Z,35.10
2019-05-19T15:24:15.889Z,34.80
2019-05-19T15:26:18.918Z,34.50
2019-05-19T15:28:20.772Z,33.90
2019-05-19T15:30:21.925Z,33.40
2019-05-19T15:32:23.274Z,33.40
2019-05-19T15:34:25.253Z,33.60
2019-05-19T15:36:26.400Z,33.90
2019-05-19T15:38:27.549Z,34.10
2019-05-19T15:40:28.720Z,34.30
2019-05-19T15:42:29.862Z,34.50
2019-05-19T15:44:31.082Z,34.60
2019-05-19T15:46:32.229Z,34.80
2019-05-19T15:48:34.617Z,34.90
2019-05-19T15:50:37.666Z,35.20
2019-05-19T15:52:39.169Z,35.40
2019-05-19T15:54:41.781Z,35.50
2019-05-19T15:56:43.186Z,35.70
2019-05-19T15:58:44.348Z,35.80
2019-05-19T16:00:46.081Z,35.90
2019-05-19T16:02:49.263Z,36.00
2019-05-19T16:04:51.141Z,36.00
2019-05-19T16:06:52.556Z,36.00
2019-05-19T16:08:53.957Z,36.00
2019-05-19T16:10:55.399Z,36.10
2019-05-19T16:12:56.560Z,35.90
2019-05-19T16:14:57.986Z,35.80
2019-05-19T16:17:00.052Z,35.50
2019-05-19T16:19:01.234Z,35.00
2019-05-19T16:21:02.679Z,34.40
2019-05-19T16:23:03.962Z,33.90
2019-05-19T16:25:06.804Z,33.00
2019-05-19T16:27:08.014Z,32.50
2019-05-19T16:29:09.090Z,32.20
2019-05-19T16:31:10.255Z,32.20
2019-05-19T16:33:11.435Z,32.20
2019-05-19T16:35:12.477Z,32.40
2019-05-19T16:37:13.637Z,32.80
2019-05-19T16:39:15.890Z,33.10
2019-05-19T16:41:19.062Z,33.30
2019-05-19T16:43:20.117Z,33.10
2019-05-19T16:45:23.450Z,33.00
2019-05-19T16:47:24.777Z,33.10
2019-05-19T16:49:26.078Z,33.20
2019-05-19T16:51:27.321Z,33.10
2019-05-19T16:53:28.902Z,32.90
2019-05-19T16:55:31.741Z,32.70
2019-05-19T16:57:33.171Z,32.40
2019-05-19T16:59:34.550Z,32.10
2019-05-19T17:01:36.062Z,31.90
2019-05-19T17:03:37.446Z,31.60
2019-05-19T17:05:38.802Z,31.40
2019-05-19T17:07:53.686Z,31.10
2019-05-19T17:09:55.021Z,30.80
2019-05-19T17:11:56.454Z,30.40
2019-05-19T17:13:58.737Z,30.20
2019-05-19T17:15:59.889Z,29.90
2019-05-19T17:18:01.187Z,29.60
2019-05-19T17:20:04.233Z,27.40
2019-05-19T17:22:05.506Z,25.50
2019-05-19T17:24:06.779Z,24.70
2019-05-19T17:26:08.054Z,24.20
2019-05-19T17:28:10.534Z,23.50
2019-05-19T17:30:12.833Z,23.20
2019-05-19T17:32:14.191Z,23.00
2019-05-19T17:34:15.530Z,22.60
2019-05-19T17:36:16.950Z,22.50
2019-05-19T17:38:18.189Z,22.20
2019-05-19T17:40:19.758Z,22.10
2019-05-19T17:42:20.897Z,22.10
2019-05-19T17:44:22.174Z,21.90
2019-05-19T17:46:24.730Z,22.00
2019-05-19T17:48:26.989Z,22.10
2019-05-19T17:50:31.043Z,22.50
2019-05-19T17:52:32.417Z,22.50
2019-05-19T17:54:33.722Z,22.40
2019-05-19T17:56:35.938Z,22.60
2019-05-19T17:58:37.434Z,22.40
2019-05-19T18:00:39.339Z,22.10
2019-05-19T18:02:40.620Z,22.00
2019-05-19T18:04:41.941Z,21.80
2019-05-19T18:06:43.254Z,21.80
2019-05-19T18:08:44.539Z,21.70
2019-05-19T18:10:45.998Z,21.60
2019-05-19T18:12:47.281Z,21.60
2019-05-19T18:14:48.582Z,21.70
2019-05-19T18:16:49.908Z,22.10
2019-05-19T18:18:51.365Z,22.00
2019-05-19T18:20:52.912Z,21.90
2019-05-19T18:22:54.121Z,22.00
2019-05-19T18:24:55.398Z,22.00
2019-05-19T18:26:57.005Z,21.80
2019-05-19T18:28:58.581Z,21.50
2019-05-19T18:30:59.813Z,21.70
2019-05-19T18:33:01.282Z,22.00
2019-05-19T18:35:04.423Z,22.20
2019-05-19T18:37:05.705Z,22.20
2019-05-19T18:39:07.026Z,22.50
2019-05-19T18:41:08.298Z,22.70
2019-05-19T18:43:09.563Z,22.80
2019-05-19T18:45:11.345Z,22.50
2019-05-19T18:47:12.770Z,22.40
2019-05-19T18:49:14.034Z,22.30
2019-05-19T18:51:15.427Z,21.90
2019-05-19T18:53:16.686Z,22.00
2019-05-19T18:55:18.246Z,22.10
2019-05-19T18:57:19.641Z,22.30
2019-05-19T18:59:21.189Z,22.40
2019-05-19T19:01:22.537Z,22.50
2019-05-19T19:03:23.798Z,22.50
2019-05-19T19:05:25.398Z,22.60
2019-05-19T19:07:47.385Z,22.60
2019-05-19T19:09:48.655Z,22.50
2019-05-19T19:11:50.238Z,22.70
2019-05-19T19:13:51.617Z,22.70
2019-05-19T19:15:52.917Z,22.50
2019-05-19T19:17:54.239Z,22.40
2019-05-19T19:19:56.729Z,22.50
2019-05-19T19:21:58.010Z,22.50
2019-05-19T19:23:59.366Z,22.40
2019-05-19T19:26:01.641Z,22.00
2019-05-19T19:28:03.163Z,21.60
2019-05-19T19:30:05.357Z,21.80
2019-05-19T19:32:06.763Z,21.80
2019-05-19T19:34:07.986Z,21.90
2019-05-19T19:36:09.254Z,21.90
2019-05-19T19:38:10.787Z,21.70
2019-05-19T19:40:16.983Z,21.80
2019-05-19T19:42:18.339Z,21.90
2019-05-19T19:44:27.303Z,21.80
2019-05-19T19:46:28.773Z,21.60
2019-05-19T19:48:30.294Z,21.50
2019-05-19T19:50:31.997Z,21.20
2019-05-19T19:52:33.553Z,21.20
2019-05-19T19:54:37.980Z,21.20
2019-05-19T19:56:39.358Z,21.30
2019-05-19T19:58:40.630Z,21.40
2019-05-19T20:00:43.270Z,21.50
2019-05-19T20:02:44.870Z,21.50
2019-05-19T20:04:46.267Z,21.30
2019-05-19T20:06:47.809Z,21.20
2019-05-19T20:08:49.402Z,20.80
2019-05-19T20:10:50.671Z,21.00
2019-05-19T20:12:52.048Z,21.00
2019-05-19T20:14:53.316Z,20.80
2019-05-19T20:16:54.589Z,20.50
2019-05-19T20:18:55.942Z,20.50
2019-05-19T20:20:57.449Z,20.50
2019-05-19T20:22:58.601Z,20.20
2019-05-19T20:24:59.873Z,19.90
2019-05-19T20:27:01.144Z,20.20
2019-05-19T20:29:02.397Z,20.40
2019-05-19T20:31:04.008Z,20.30
2019-05-19T20:33:05.178Z,20.20
2019-05-19T20:35:06.634Z,20.00
2019-05-19T20:37:08.158Z,20.10
2019-05-19T20:39:09.425Z,20.10
2019-05-19T20:41:10.721Z,20.20
2019-05-19T20:43:11.986Z,20.30
2019-05-19T20:45:13.457Z,20.40
2019-05-19T20:47:14.638Z,20.50
2019-05-19T20:49:15.987Z,20.60
2019-05-19T20:51:17.357Z,20.50
2019-05-19T20:53:18.665Z,20.50
2019-05-19T20:55:20.012Z,20.50
2019-05-19T20:57:21.384Z,20.50
2019-05-19T20:59:22.914Z,20.40
2019-05-19T21:01:24.055Z,20.50
2019-05-19T21:03:25.322Z,20.30
2019-05-19T21:05:26.895Z,20.30
2019-05-19T21:07:28.110Z,20.00
2019-05-19T21:09:30.714Z,20.00
2019-05-19T21:11:32.117Z,20.10
2019-05-19T21:13:33.457Z,20.10
2019-05-19T21:15:35.013Z,20.10
2019-05-19T21:17:36.165Z,20.00
2019-05-19T21:19:37.482Z,20.10
2019-05-19T21:21:38.754Z,20.00
2019-05-19T21:23:41.877Z,19.90
2019-05-19T21:25:43.091Z,19.90
2019-05-19T21:27:44.366Z,19.90
2019-05-19T21:29:45.898Z,19.90
2019-05-19T21:31:48.170Z,19.90
2019-05-19T21:33:49.694Z,19.90
2019-05-19T21:35:51.093Z,19.80
2019-05-19T21:37:54.469Z,19.70
2019-05-19T21:39:55.977Z,19.70
2019-05-19T21:41:58.246Z,19.60
2019-05-19T21:43:59.806Z,19.50
2019-05-19T21:46:00.953Z,19.50
2019-05-19T21:48:03.025Z,19.40
2019-05-19T21:50:04.856Z,19.40
2019-05-19T21:52:06.375Z,19.30
2019-05-19T21:54:07.651Z,19.30
2019-05-19T21:56:09.076Z,19.30
2019-05-19T21:58:10.439Z,19.20
2019-05-19T22:00:12.470Z,19.20
2019-05-19T22:02:15.629Z,19.10
2019-05-19T22:04:16.931Z,19.00
2019-05-19T22:06:20.089Z,18.90
2019-05-19T22:08:21.401Z,18.90
2019-05-19T22:10:22.662Z,18.80
2019-05-19T22:12:23.926Z,18.80
2019-05-19T22:14:25.195Z,18.70
2019-05-19T22:16:26.468Z,18.70
2019-05-19T22:18:27.756Z,18.60
2019-05-19T22:20:29.046Z,18.70
2019-05-19T22:22:30.436Z,18.70
2019-05-19T22:24:31.697Z,18.60
2019-05-19T22:26:33.230Z,18.50
2019-05-19T22:28:34.716Z,18.30
2019-05-19T22:30:36.228Z,18.20
2019-05-19T22:32:37.369Z,18.40
2019-05-19T22:34:38.634Z,18.40
2019-05-19T22:36:39.906Z,18.40
2019-05-19T22:38:41.181Z,18.30
2019-05-19T22:40:42.451Z,18.40
2019-05-19T22:42:43.710Z,18.40
2019-05-19T22:44:44.982Z,18.40
2019-05-19T22:46:46.251Z,18.30
2019-05-19T22:48:47.521Z,18.30
2019-05-19T22:50:48.789Z,18.30
2019-05-19T22:52:50.301Z,18.20
2019-05-19T22:54:51.453Z,18.10
2019-05-19T22:56:52.811Z,18.00
2019-05-19T22:58:54.235Z,18.00
2019-05-19T23:00:55.691Z,17.90
2019-05-19T23:02:56.953Z,17.80
2019-05-19T23:04:58.222Z,17.10
2019-05-19T23:06:59.765Z,16.50
2019-05-19T23:09:01.153Z,16.10
2019-05-19T23:11:02.506Z,15.70
2019-05-19T23:13:03.786Z,15.60
2019-05-19T23:15:05.874Z,15.60
2019-05-19T23:17:07.230Z,15.70
2019-05-19T23:19:08.602Z,16.00
2019-05-19T23:21:10.286Z,16.40
2019-05-19T23:23:11.456Z,16.70
2019-05-19T23:25:12.834Z,16.90
2019-05-19T23:27:14.173Z,17.00
2019-05-19T23:29:16.709Z,17.10
2019-05-19T23:31:17.853Z,17.20
2019-05-19T23:33:19.139Z,17.20
2019-05-19T23:35:20.507Z,17.20
2019-05-19T23:37:21.821Z,17.10
2019-05-19T23:39:23.341Z,17.10
2019-05-19T23:41:24.624Z,17.10
2019-05-19T23:43:25.979Z,17.00
2019-05-19T23:45:27.249Z,17.00
2019-05-19T23:47:28.778Z,16.90
2019-05-19T23:49:30.029Z,16.80
2019-05-19T23:51:31.586Z,16.80
2019-05-19T23:53:32.845Z,16.70
2019-05-19T23:55:34.133Z,16.70
2019-05-19T23:57:35.409Z,16.70
2019-05-19T23:59:36.782Z,16.30
